sensor_id;sensor_type;location;lat;lon;timestamp;pressure;altitude;pressure_sealevel;temperature;humidity
41688;BME280;27371;42.686;23.362;2022-09-27T00:04:25;166171.81;;;15.23;90.67
41688;BME280;27371;42.686;23.362;2022-09-27T00:06:51;166131.59;;;15.07;91.49
41688;BME280;27371;42.686;23.362;2022-09-27T00:09:17;166130.28;;;15.07;92.18
41688;BME280;27371;42.686;23.362;2022-09-27T00:11:42;166147.72;;;15.13;92.79
41688;BME280;27371;42.686;23.362;2022-09-27T00:14:10;166128.94;;;15.06;92.18
41688;BME280;27371;42.686;23.362;2022-09-27T00:16:37;166096.75;;;14.94;92.42
41688;BME280;27371;42.686;23.362;2022-09-27T00:19:06;166055.28;;;14.78;92.46
41688;BME280;27371;42.686;23.362;2022-09-27T00:21:31;166021.75;;;14.65;93.01
41688;BME280;27371;42.686;23.362;2022-09-27T00:23:57;166036.50;;;14.71;93.13
41688;BME280;27371;42.686;23.362;2022-09-27T00:26:24;165996.34;;;14.56;93.46
41688;BME280;27371;42.686;23.362;2022-09-27T00:28:49;166025.81;;;14.67;93.84
41688;BME280;27371;42.686;23.362;2022-09-27T00:31:27;166031.13;;;14.69;93.99
41688;BME280;27371;42.686;23.362;2022-09-27T00:33:54;166060.59;;;14.80;94.01
41688;BME280;27371;42.686;23.362;2022-09-27T00:36:22;166074.00;;;14.85;94.42
41688;BME280;27371;42.686;23.362;2022-09-27T00:38:48;166055.28;;;14.78;94.16
41688;BME280;27371;42.686;23.362;2022-09-27T00:41:21;166025.81;;;14.67;94.76
41688;BME280;27371;42.686;23.362;2022-09-27T00:43:55;166025.81;;;14.67;94.71
41688;BME280;27371;42.686;23.362;2022-09-27T00:46:28;166005.69;;;14.59;95.06
41688;BME280;27371;42.686;23.362;2022-09-27T00:51:30;165976.19;;;14.48;95.82
41688;BME280;27371;42.686;23.362;2022-09-27T00:53:57;165976.19;;;14.48;95.88
41688;BME280;27371;42.686;23.362;2022-09-27T00:56:26;165950.72;;;14.38;96.33
41688;BME280;27371;42.686;23.362;2022-09-27T00:58:58;165923.97;;;14.28;96.37
41688;BME280;27371;42.686;23.362;2022-09-27T01:01:26;165929.28;;;14.30;96.96
41688;BME280;27371;42.686;23.362;2022-09-27T01:04:06;165913.22;;;14.24;97.04
41688;BME280;27371;42.686;23.362;2022-09-27T01:06:32;165910.56;;;14.23;97.61
41688;BME280;27371;42.686;23.362;2022-09-27T01:08:58;165911.91;;;14.23;97.75
41688;BME280;27371;42.686;23.362;2022-09-27T01:11:43;165915.88;;;14.25;98.07
41688;BME280;27371;42.686;23.362;2022-09-27T01:22:48;165917.25;;;14.25;97.99
41688;BME280;27371;42.686;23.362;2022-09-27T01:25:33;165899.81;;;14.19;97.49
41688;BME280;27371;42.686;23.362;2022-09-27T01:33:42;165874.41;;;14.09;100.00
41688;BME280;27371;42.686;23.362;2022-09-27T01:38:50;165839.59;;;13.96;99.29
41688;BME280;27371;42.686;23.362;2022-09-27T01:41:38;165804.75;;;13.82;100.00
41688;BME280;27371;42.686;23.362;2022-09-27T01:44:18;165812.78;;;13.86;100.00
41688;BME280;27371;42.686;23.362;2022-09-27T01:46:52;165822.16;;;13.89;100.00
41688;BME280;27371;42.686;23.362;2022-09-27T01:49:28;165823.53;;;13.90;100.00
41688;BME280;27371;42.686;23.362;2022-09-27T01:52:01;165815.50;;;13.87;100.00
41688;BME280;27371;42.686;23.362;2022-09-27T01:54:40;165820.81;;;13.89;100.00
41688;BME280;27371;42.686;23.362;2022-09-27T01:57:08;165818.16;;;13.88;100.00
41688;BME280;27371;42.686;23.362;2022-09-27T01:59:47;165832.88;;;13.93;100.00
41688;BME280;27371;42.686;23.362;2022-09-27T02:02:16;165865.00;;;14.06;100.00
41688;BME280;27371;42.686;23.362;2022-09-27T02:04:43;165877.06;;;14.10;100.00
41688;BME280;27371;42.686;23.362;2022-09-27T02:07:17;165901.16;;;14.19;100.00
41688;BME280;27371;42.686;23.362;2022-09-27T02:09:53;165858.31;;;14.03;100.00
41688;BME280;27371;42.686;23.362;2022-09-27T02:12:27;165889.13;;;14.15;100.00
41688;BME280;27371;42.686;23.362;2022-09-27T02:15:01;165881.09;;;14.12;100.00
41688;BME280;27371;42.686;23.362;2022-09-27T02:18:00;165877.06;;;14.10;100.00
41688;BME280;27371;42.686;23.362;2022-09-27T02:20:34;165855.66;;;14.02;100.00
41688;BME280;27371;42.686;23.362;2022-09-27T02:25:39;165820.81;;;13.89;100.00
41688;BME280;27371;42.686;23.362;2022-09-27T02:30:54;165834.22;;;13.94;100.00
41688;BME280;27371;42.686;23.362;2022-09-27T02:33:25;165828.84;;;13.92;100.00
41688;BME280;27371;42.686;23.362;2022-09-27T02:35:51;165819.50;;;13.88;100.00
41688;BME280;27371;42.686;23.362;2022-09-27T02:38:17;165824.88;;;13.90;100.00
41688;BME280;27371;42.686;23.362;2022-09-27T02:40:44;165808.81;;;13.84;100.00
41688;BME280;27371;42.686;23.362;2022-09-27T02:43:11;165819.50;;;13.88;100.00
41688;BME280;27371;42.686;23.362;2022-09-27T02:48:35;165794.09;;;13.78;100.00
41688;BME280;27371;42.686;23.362;2022-09-27T02:54:20;165777.97;;;13.72;100.00
41688;BME280;27371;42.686;23.362;2022-09-27T02:57:00;165795.41;;;13.79;100.00
41688;BME280;27371;42.686;23.362;2022-09-27T03:02:27;165826.19;;;13.91;100.00
41688;BME280;27371;42.686;23.362;2022-09-27T03:05:01;165850.28;;;14.00;100.00
41688;BME280;27371;42.686;23.362;2022-09-27T03:07:28;165873.03;;;14.09;100.00
41688;BME280;27371;42.686;23.362;2022-09-27T03:09:54;165848.94;;;13.99;100.00
41688;BME280;27371;42.686;23.362;2022-09-27T03:12:20;165827.53;;;13.91;100.00
41688;BME280;27371;42.686;23.362;2022-09-27T03:14:57;165823.53;;;13.90;100.00
41688;BME280;27371;42.686;23.362;2022-09-27T03:17:23;165815.50;;;13.87;100.00
41688;BME280;27371;42.686;23.362;2022-09-27T03:19:48;165790.03;;;13.77;100.00
41688;BME280;27371;42.686;23.362;2022-09-27T03:22:14;165791.38;;;13.77;100.00
41688;BME280;27371;42.686;23.362;2022-09-27T03:24:40;165791.38;;;13.77;100.00
41688;BME280;27371;42.686;23.362;2022-09-27T03:27:05;165782.00;;;13.74;100.00
41688;BME280;27371;42.686;23.362;2022-09-27T03:29:31;165783.34;;;13.74;100.00
41688;BME280;27371;42.686;23.362;2022-09-27T03:31:57;165786.00;;;13.75;100.00
41688;BME280;27371;42.686;23.362;2022-09-27T03:34:22;165764.59;;;13.67;100.00
41688;BME280;27371;42.686;23.362;2022-09-27T03:36:48;165784.66;;;13.75;100.00
41688;BME280;27371;42.686;23.362;2022-09-27T03:39:14;165769.94;;;13.69;100.00
41688;BME280;27371;42.686;23.362;2022-09-27T03:41:39;165792.69;;;13.78;100.00
41688;BME280;27371;42.686;23.362;2022-09-27T03:44:05;165777.97;;;13.72;100.00
41688;BME280;27371;42.686;23.362;2022-09-27T03:46:31;165799.41;;;13.80;100.00
41688;BME280;27371;42.686;23.362;2022-09-27T03:48:56;165804.75;;;13.82;100.00
41688;BME280;27371;42.686;23.362;2022-09-27T03:51:22;165827.53;;;13.91;100.00
41688;BME280;27371;42.686;23.362;2022-09-27T03:53:47;165807.44;;;13.84;100.00
41688;BME280;27371;42.686;23.362;2022-09-27T03:56:13;165820.81;;;13.89;100.00
41688;BME280;27371;42.686;23.362;2022-09-27T03:58:39;165804.75;;;13.82;100.00
41688;BME280;27371;42.686;23.362;2022-09-27T04:01:04;165838.25;;;13.95;100.00
41688;BME280;27371;42.686;23.362;2022-09-27T04:03:30;165852.97;;;14.01;100.00
41688;BME280;27371;42.686;23.362;2022-09-27T04:05:55;165869.03;;;14.07;100.00
41688;BME280;27371;42.686;23.362;2022-09-27T04:08:21;165897.16;;;14.18;100.00
41688;BME280;27371;42.686;23.362;2022-09-27T04:10:47;165895.84;;;14.17;100.00
41688;BME280;27371;42.686;23.362;2022-09-27T04:13:12;165929.28;;;14.30;100.00
41688;BME280;27371;42.686;23.362;2022-09-27T04:15:38;165937.31;;;14.33;100.00
41688;BME280;27371;42.686;23.362;2022-09-27T04:18:04;165927.97;;;14.30;100.00
41688;BME280;27371;42.686;23.362;2022-09-27T04:20:30;165945.41;;;14.36;100.00
41688;BME280;27371;42.686;23.362;2022-09-27T04:22:55;165941.34;;;14.35;100.00
41688;BME280;27371;42.686;23.362;2022-09-27T04:25:21;165933.31;;;14.32;100.00
41688;BME280;27371;42.686;23.362;2022-09-27T04:27:46;165934.66;;;14.32;100.00
41688;BME280;27371;42.686;23.362;2022-09-27T04:30:13;165962.78;;;14.43;100.00
41688;BME280;27371;42.686;23.362;2022-09-27T04:32:43;165976.19;;;14.48;100.00
41688;BME280;27371;42.686;23.362;2022-09-27T04:35:10;165994.97;;;14.55;100.00
41688;BME280;27371;42.686;23.362;2022-09-27T04:37:54;166007.03;;;14.60;100.00
41688;BME280;27371;42.686;23.362;2022-09-27T04:40:20;166004.38;;;14.59;100.00
41688;BME280;27371;42.686;23.362;2022-09-27T04:42:49;165997.66;;;14.56;100.00
41688;BME280;27371;42.686;23.362;2022-09-27T04:45:15;166009.69;;;14.61;100.00
41688;BME280;27371;42.686;23.362;2022-09-27T04:47:46;166025.81;;;14.67;100.00
41688;BME280;27371;42.686;23.362;2022-09-27T04:50:12;166028.47;;;14.68;100.00
41688;BME280;27371;42.686;23.362;2022-09-27T04:52:39;166031.13;;;14.69;100.00
41688;BME280;27371;42.686;23.362;2022-09-27T04:55:06;166029.78;;;14.68;100.00
41688;BME280;27371;42.686;23.362;2022-09-27T04:57:32;165994.97;;;14.55;100.00
41688;BME280;27371;42.686;23.362;2022-09-27T04:59:57;166041.88;;;14.73;100.00
41688;BME280;27371;42.686;23.362;2022-09-27T05:02:28;166059.25;;;14.80;100.00
41688;BME280;27371;42.686;23.362;2022-09-27T05:04:54;166068.69;;;14.83;100.00
41688;BME280;27371;42.686;23.362;2022-09-27T05:07:24;166055.28;;;14.78;100.00
41688;BME280;27371;42.686;23.362;2022-09-27T05:09:49;165982.88;;;14.51;97.67
41688;BME280;27371;42.686;23.362;2022-09-27T05:12:15;165878.41;;;14.11;96.37
41688;BME280;27371;42.686;23.362;2022-09-27T05:14:40;165828.84;;;13.92;97.15
41688;BME280;27371;42.686;23.362;2022-09-27T05:17:06;165800.72;;;13.81;97.93
41688;BME280;27371;42.686;23.362;2022-09-27T05:19:32;165764.59;;;13.67;98.72
41688;BME280;27371;42.686;23.362;2022-09-27T05:21:58;165745.88;;;13.60;99.28
41688;BME280;27371;42.686;23.362;2022-09-27T05:24:23;165728.44;;;13.53;100.00
41688;BME280;27371;42.686;23.362;2022-09-27T05:26:49;165759.25;;;13.65;100.00
41688;BME280;27371;42.686;23.362;2022-09-27T05:29:15;165807.44;;;13.84;100.00
41688;BME280;27371;42.686;23.362;2022-09-27T05:31:41;165824.88;;;13.90;100.00
41688;BME280;27371;42.686;23.362;2022-09-27T05:34:07;165835.53;;;13.94;100.00
41688;BME280;27371;42.686;23.362;2022-09-27T05:36:35;165869.03;;;14.07;100.00
41688;BME280;27371;42.686;23.362;2022-09-27T05:39:01;165901.16;;;14.19;100.00
41688;BME280;27371;42.686;23.362;2022-09-27T05:41:27;165914.56;;;14.24;100.00
41688;BME280;27371;42.686;23.362;2022-09-27T05:43:52;165918.59;;;14.26;100.00
41688;BME280;27371;42.686;23.362;2022-09-27T05:46:18;165923.97;;;14.28;100.00
41688;BME280;27371;42.686;23.362;2022-09-27T05:48:43;165925.28;;;14.29;100.00
41688;BME280;27371;42.686;23.362;2022-09-27T05:51:08;165930.63;;;14.31;100.00
41688;BME280;27371;42.686;23.362;2022-09-27T05:53:35;165923.97;;;14.28;100.00
41688;BME280;27371;42.686;23.362;2022-09-27T05:56:02;165919.94;;;14.26;100.00
41688;BME280;27371;42.686;23.362;2022-09-27T05:58:28;165925.28;;;14.29;100.00
41688;BME280;27371;42.686;23.362;2022-09-27T06:00:54;165938.69;;;14.34;100.00
41688;BME280;27371;42.686;23.362;2022-09-27T06:03:19;165954.75;;;14.40;100.00
41688;BME280;27371;42.686;23.362;2022-09-27T06:05:44;165972.16;;;14.46;100.00
41688;BME280;27371;42.686;23.362;2022-09-27T06:08:11;166000.34;;;14.57;100.00
41688;BME280;27371;42.686;23.362;2022-09-27T06:10:38;166013.72;;;14.62;100.00
41688;BME280;27371;42.686;23.362;2022-09-27T06:13:11;165999.00;;;14.57;100.00
41688;BME280;27371;42.686;23.362;2022-09-27T06:15:39;165986.94;;;14.52;100.00
41688;BME280;27371;42.686;23.362;2022-09-27T06:18:09;165997.66;;;14.56;100.00
41688;BME280;27371;42.686;23.362;2022-09-27T06:20:36;166021.75;;;14.65;100.00
41688;BME280;27371;42.686;23.362;2022-09-27T06:23:06;166036.50;;;14.71;100.00
41688;BME280;27371;42.686;23.362;2022-09-27T06:25:34;166032.50;;;14.69;100.00
41688;BME280;27371;42.686;23.362;2022-09-27T06:28:00;166020.44;;;14.65;100.00
41688;BME280;27371;42.686;23.362;2022-09-27T06:30:26;166029.78;;;14.68;100.00
41688;BME280;27371;42.686;23.362;2022-09-27T06:32:59;166023.09;;;14.66;100.00
41688;BME280;27371;42.686;23.362;2022-09-27T06:35:26;166036.50;;;14.71;100.00
41688;BME280;27371;42.686;23.362;2022-09-27T06:37:52;166031.13;;;14.69;100.00
41688;BME280;27371;42.686;23.362;2022-09-27T06:40:19;166024.41;;;14.66;100.00
41688;BME280;27371;42.686;23.362;2022-09-27T06:42:44;166028.47;;;14.68;100.00
41688;BME280;27371;42.686;23.362;2022-09-27T06:45:11;166041.88;;;14.73;100.00
41688;BME280;27371;42.686;23.362;2022-09-27T06:47:36;166027.13;;;14.67;100.00
41688;BME280;27371;42.686;23.362;2022-09-27T06:50:03;166021.75;;;14.65;100.00
41688;BME280;27371;42.686;23.362;2022-09-27T06:52:30;166020.44;;;14.65;100.00
41688;BME280;27371;42.686;23.362;2022-09-27T06:54:56;166035.16;;;14.70;100.00
41688;BME280;27371;42.686;23.362;2022-09-27T06:57:21;166033.84;;;14.70;100.00
41688;BME280;27371;42.686;23.362;2022-09-27T07:00:06;166053.94;;;14.78;100.00
41688;BME280;27371;42.686;23.362;2022-09-27T07:02:55;166043.19;;;14.74;100.00
41688;BME280;27371;42.686;23.362;2022-09-27T07:05:29;166040.53;;;14.73;100.00
41688;BME280;27371;42.686;23.362;2022-09-27T07:07:55;166023.09;;;14.66;100.00
41688;BME280;27371;42.686;23.362;2022-09-27T07:10:27;166055.28;;;14.78;100.00
41688;BME280;27371;42.686;23.362;2022-09-27T07:12:54;166049.91;;;14.76;100.00
41688;BME280;27371;42.686;23.362;2022-09-27T07:15:20;166076.72;;;14.86;100.00
41688;BME280;27371;42.686;23.362;2022-09-27T07:17:47;166057.94;;;14.79;100.00
41688;BME280;27371;42.686;23.362;2022-09-27T07:20:19;166072.66;;;14.85;100.00
41688;BME280;27371;42.686;23.362;2022-09-27T07:22:45;166084.75;;;14.89;100.00
41688;BME280;27371;42.686;23.362;2022-09-27T07:25:11;166103.47;;;14.97;100.00
41688;BME280;27371;42.686;23.362;2022-09-27T07:27:37;166092.78;;;14.92;100.00
41688;BME280;27371;42.686;23.362;2022-09-27T07:30:03;166096.75;;;14.94;100.00
41688;BME280;27371;42.686;23.362;2022-09-27T07:32:31;166102.13;;;14.96;100.00
41688;BME280;27371;42.686;23.362;2022-09-27T07:34:57;166091.44;;;14.92;100.00
41688;BME280;27371;42.686;23.362;2022-09-27T07:37:22;166127.63;;;15.06;100.00
41688;BME280;27371;42.686;23.362;2022-09-27T07:39:48;166145.00;;;15.12;100.00
41688;BME280;27371;42.686;23.362;2022-09-27T07:42:13;166153.03;;;15.15;100.00
41688;BME280;27371;42.686;23.362;2022-09-27T07:44:38;166170.50;;;15.22;100.00
41688;BME280;27371;42.686;23.362;2022-09-27T07:47:07;166187.88;;;15.29;100.00
41688;BME280;27371;42.686;23.362;2022-09-27T07:49:33;166182.50;;;15.27;100.00
41688;BME280;27371;42.686;23.362;2022-09-27T07:51:58;166213.38;;;15.39;100.00
41688;BME280;27371;42.686;23.362;2022-09-27T07:54:24;166225.41;;;15.43;100.00
41688;BME280;27371;42.686;23.362;2022-09-27T07:56:49;166226.72;;;15.44;100.00
41688;BME280;27371;42.686;23.362;2022-09-27T07:59:15;166244.19;;;15.50;100.00
41688;BME280;27371;42.686;23.362;2022-09-27T08:01:40;166258.91;;;15.56;100.00
41688;BME280;27371;42.686;23.362;2022-09-27T08:04:06;166232.09;;;15.46;100.00
41688;BME280;27371;42.686;23.362;2022-09-27T08:06:31;166217.38;;;15.40;100.00
41688;BME280;27371;42.686;23.362;2022-09-27T08:08:57;166222.75;;;15.42;100.00
41688;BME280;27371;42.686;23.362;2022-09-27T08:11:23;166205.34;;;15.35;100.00
41688;BME280;27371;42.686;23.362;2022-09-27T08:13:49;166198.63;;;15.33;100.00
41688;BME280;27371;42.686;23.362;2022-09-27T08:16:17;166208.00;;;15.36;100.00
41688;BME280;27371;42.686;23.362;2022-09-27T08:18:42;166175.81;;;15.24;100.00
41688;BME280;27371;42.686;23.362;2022-09-27T08:21:07;166197.25;;;15.32;100.00
41688;BME280;27371;42.686;23.362;2022-09-27T08:23:33;166197.25;;;15.32;100.00
41688;BME280;27371;42.686;23.362;2022-09-27T08:25:58;166202.63;;;15.34;100.00
41688;BME280;27371;42.686;23.362;2022-09-27T08:28:25;166205.34;;;15.35;100.00
41688;BME280;27371;42.686;23.362;2022-09-27T08:30:51;166213.38;;;15.39;100.00
41688;BME280;27371;42.686;23.362;2022-09-27T08:33:17;166252.22;;;15.53;100.00
41688;BME280;27371;42.686;23.362;2022-09-27T08:35:42;166264.28;;;15.58;100.00
41688;BME280;27371;42.686;23.362;2022-09-27T08:38:09;166279.03;;;15.64;100.00
41688;BME280;27371;42.686;23.362;2022-09-27T08:46:53;166323.31;;;15.80;100.00
41688;BME280;27371;42.686;23.362;2022-09-27T08:49:35;166340.72;;;15.87;100.00
41688;BME280;27371;42.686;23.362;2022-09-27T08:52:08;166331.34;;;15.84;100.00
41688;BME280;27371;42.686;23.362;2022-09-27T08:54:37;166356.78;;;15.93;100.00
41688;BME280;27371;42.686;23.362;2022-09-27T08:57:08;166375.56;;;16.00;100.00
41688;BME280;27371;42.686;23.362;2022-09-27T08:59:41;166394.38;;;16.08;100.00
41688;BME280;27371;42.686;23.362;2022-09-27T09:02:16;166411.78;;;16.14;100.00
41688;BME280;27371;42.686;23.362;2022-09-27T09:04:43;166443.97;;;16.27;100.00
41688;BME280;27371;42.686;23.362;2022-09-27T09:07:16;166473.47;;;16.38;100.00
41688;BME280;27371;42.686;23.362;2022-09-27T09:21:33;166677.34;;;17.16;99.19
41688;BME280;27371;42.686;23.362;2022-09-27T09:24:08;166677.34;;;17.16;97.27
41688;BME280;27371;42.686;23.362;2022-09-27T09:26:46;166661.25;;;17.09;96.77
41688;BME280;27371;42.686;23.362;2022-09-27T09:34:37;166671.97;;;17.13;96.27
41688;BME280;27371;42.686;23.362;2022-09-27T09:37:04;166670.63;;;17.13;95.43
41688;BME280;27371;42.686;23.362;2022-09-27T09:42:55;166684.06;;;17.18;97.01
41688;BME280;27371;42.686;23.362;2022-09-27T09:45:32;166690.75;;;17.21;96.79
41688;BME280;27371;42.686;23.362;2022-09-27T09:48:07;166718.94;;;17.31;96.94
41688;BME280;27371;42.686;23.362;2022-09-27T09:50:42;166732.31;;;17.36;96.42
41688;BME280;27371;42.686;23.362;2022-09-27T09:53:28;166776.63;;;17.53;96.74
41688;BME280;27371;42.686;23.362;2022-09-27T09:56:04;166790.00;;;17.58;95.58
41688;BME280;27371;42.686;23.362;2022-09-27T09:59:28;166846.41;;;17.80;94.77
41688;BME280;27371;42.686;23.362;2022-09-27T10:01:46;166857.16;;;17.84;93.18
41688;BME280;27371;42.686;23.362;2022-09-27T10:04:22;166873.25;;;17.90;93.20
41688;BME280;27371;42.686;23.362;2022-09-27T10:06:49;166875.94;;;17.91;93.16
41688;BME280;27371;42.686;23.362;2022-09-27T10:09:23;166896.06;;;17.99;92.77
41688;BME280;27371;42.686;23.362;2022-09-27T10:11:49;166890.69;;;17.97;91.78
41688;BME280;27371;42.686;23.362;2022-09-27T10:14:16;166924.25;;;18.10;92.28
41688;BME280;27371;42.686;23.362;2022-09-27T10:16:46;166933.63;;;18.13;92.39
41688;BME280;27371;42.686;23.362;2022-09-27T10:19:16;166939.00;;;18.15;91.66
41688;BME280;27371;42.686;23.362;2022-09-27T10:21:45;166937.69;;;18.15;91.10
41688;BME280;27371;42.686;23.362;2022-09-27T10:24:14;166888.03;;;17.96;91.12
41688;BME280;27371;42.686;23.362;2022-09-27T10:26:43;166930.97;;;18.12;91.92
41688;BME280;27371;42.686;23.362;2022-09-27T10:29:36;166949.72;;;18.19;90.77
41688;BME280;27371;42.686;23.362;2022-09-27T10:32:03;166973.91;;;18.29;91.16
41688;BME280;27371;42.686;23.362;2022-09-27T10:37:13;167007.44;;;18.41;88.78
41688;BME280;27371;42.686;23.362;2022-09-27T10:39:44;167011.47;;;18.43;88.19
41688;BME280;27371;42.686;23.362;2022-09-27T10:42:32;167010.16;;;18.42;87.55
41688;BME280;27371;42.686;23.362;2022-09-27T10:45:31;167024.91;;;18.48;87.92
41688;BME280;27371;42.686;23.362;2022-09-27T10:47:58;167032.97;;;18.51;87.55
41688;BME280;27371;42.686;23.362;2022-09-27T10:50:29;167054.44;;;18.59;88.50
41688;BME280;27371;42.686;23.362;2022-09-27T10:53:12;167053.09;;;18.59;88.57
41688;BME280;27371;42.686;23.362;2022-09-27T10:55:39;167139.09;;;18.91;87.99
41688;BME280;27371;42.686;23.362;2022-09-27T10:58:16;167114.88;;;18.82;86.52
41688;BME280;27371;42.686;23.362;2022-09-27T11:00:43;167140.41;;;18.92;86.56
41688;BME280;27371;42.686;23.362;2022-09-27T11:03:18;167128.31;;;18.87;86.17
41688;BME280;27371;42.686;23.362;2022-09-27T11:05:43;167083.97;;;18.70;85.16
41688;BME280;27371;42.686;23.362;2022-09-27T11:10:44;167077.25;;;18.68;85.72
41688;BME280;27371;42.686;23.362;2022-09-27T11:13:24;167074.59;;;18.67;85.93
41688;BME280;27371;42.686;23.362;2022-09-27T11:40:10;167230.34;;;19.26;79.75
41688;BME280;27371;42.686;23.362;2022-09-27T11:45:44;167344.56;;;19.70;76.96
41688;BME280;27371;42.686;23.362;2022-09-27T12:09:43;167516.53;;;20.35;74.08
41688;BME280;27371;42.686;23.362;2022-09-27T12:12:27;167548.75;;;20.47;72.25
41688;BME280;27371;42.686;23.362;2022-09-27T12:17:40;167598.53;;;20.66;72.06
41688;BME280;27371;42.686;23.362;2022-09-27T12:20:35;167632.13;;;20.79;70.44
41688;BME280;27371;42.686;23.362;2022-09-27T12:23:03;167660.34;;;20.90;70.71
41688;BME280;27371;42.686;23.362;2022-09-27T12:25:33;167649.59;;;20.86;69.92
41688;BME280;27371;42.686;23.362;2022-09-27T12:28:07;167679.16;;;20.97;69.97
41688;BME280;27371;42.686;23.362;2022-09-27T12:30:36;167724.88;;;21.15;69.58
41688;BME280;27371;42.686;23.362;2022-09-27T12:33:27;167749.06;;;21.24;68.02
41688;BME280;27371;42.686;23.362;2022-09-27T12:35:56;167786.72;;;21.38;67.88
41688;BME280;27371;42.686;23.362;2022-09-27T12:38:55;167779.94;;;21.35;67.92
41688;BME280;27371;42.686;23.362;2022-09-27T12:41:23;167759.78;;;21.28;68.04
41688;BME280;27371;42.686;23.362;2022-09-27T12:43:49;167790.78;;;21.40;67.83
41688;BME280;27371;42.686;23.362;2022-09-27T12:51:59;167937.31;;;21.95;63.82
41688;BME280;27371;42.686;23.362;2022-09-27T12:59:55;168075.88;;;22.48;61.73
41688;BME280;27371;42.686;23.362;2022-09-27T13:06:01;168069.13;;;22.45;61.77
41688;BME280;27371;42.686;23.362;2022-09-27T13:12:10;168078.53;;;22.49;59.86
41688;BME280;27371;42.686;23.362;2022-09-27T13:14:45;168097.38;;;22.56;59.75
41688;BME280;27371;42.686;23.362;2022-09-27T13:22:52;168235.97;;;23.09;59.42
41688;BME280;27371;42.686;23.362;2022-09-27T13:30:54;168273.63;;;23.23;56.44
41688;BME280;27371;42.686;23.362;2022-09-27T13:44:43;168522.69;;;24.18;50.82
41688;BME280;27371;42.686;23.362;2022-09-27T13:47:32;168498.41;;;24.09;54.16
41688;BME280;27371;42.686;23.362;2022-09-27T13:50:25;168429.81;;;23.83;58.50
41688;BME280;27371;42.686;23.362;2022-09-27T13:53:19;168392.09;;;23.68;59.54
41688;BME280;27371;42.686;23.362;2022-09-27T13:55:51;168409.59;;;23.75;59.72
41688;BME280;27371;42.686;23.362;2022-09-27T14:00:48;168428.47;;;23.82;60.17
41688;BME280;27371;42.686;23.362;2022-09-27T14:03:16;168396.09;;;23.70;60.58
41688;BME280;27371;42.686;23.362;2022-09-27T14:05:51;168331.50;;;23.45;60.61
41688;BME280;27371;42.686;23.362;2022-09-27T14:10:54;168168.69;;;22.83;61.03
41688;BME280;27371;42.686;23.362;2022-09-27T14:13:21;168125.63;;;22.67;62.10
41688;BME280;27371;42.686;23.362;2022-09-27T14:15:51;168079.94;;;22.50;63.13
41688;BME280;27371;42.686;23.362;2022-09-27T14:18:17;168063.75;;;22.43;63.93
41688;BME280;27371;42.686;23.362;2022-09-27T14:20:47;168048.97;;;22.38;63.76
41688;BME280;27371;42.686;23.362;2022-09-27T14:23:24;168022.09;;;22.28;64.85
41688;BME280;27371;42.686;23.362;2022-09-27T14:25:54;167956.09;;;22.02;65.05
41688;BME280;27371;42.686;23.362;2022-09-27T14:28:26;167870.09;;;21.70;65.68
41688;BME280;27371;42.686;23.362;2022-09-27T14:31:15;167828.41;;;21.54;66.20
41688;BME280;27371;42.686;23.362;2022-09-27T14:33:42;167779.94;;;21.35;66.60
41688;BME280;27371;42.686;23.362;2022-09-27T14:39:12;167727.53;;;21.16;68.17
41688;BME280;27371;42.686;23.362;2022-09-27T14:41:39;167719.47;;;21.12;68.23
41688;BME280;27371;42.686;23.362;2022-09-27T14:44:13;167691.25;;;21.02;68.25
41688;BME280;27371;42.686;23.362;2022-09-27T14:46:39;167653.63;;;20.87;68.54
41688;BME280;27371;42.686;23.362;2022-09-27T14:51:50;167539.34;;;20.44;70.73
41688;BME280;27371;42.686;23.362;2022-09-27T14:54:25;167500.41;;;20.29;70.70
41688;BME280;27371;42.686;23.362;2022-09-27T14:56:54;167458.75;;;20.13;71.83
41688;BME280;27371;42.686;23.362;2022-09-27T14:59:27;167419.75;;;19.98;72.47
41688;BME280;27371;42.686;23.362;2022-09-27T15:01:58;167399.66;;;19.91;72.82
41688;BME280;27371;42.686;23.362;2022-09-27T15:04:28;167390.22;;;19.87;72.97
41688;BME280;27371;42.686;23.362;2022-09-27T15:06:57;167370.09;;;19.79;73.68
41688;BME280;27371;42.686;23.362;2022-09-27T15:09:25;167366.06;;;19.78;73.73
41688;BME280;27371;42.686;23.362;2022-09-27T15:11:55;167374.13;;;19.81;74.40
41688;BME280;27371;42.686;23.362;2022-09-27T15:14:23;167353.94;;;19.73;75.21
41688;BME280;27371;42.686;23.362;2022-09-27T15:16:50;167353.94;;;19.73;78.70
41688;BME280;27371;42.686;23.362;2022-09-27T15:19:22;167112.22;;;18.81;81.97
41688;BME280;27371;42.686;23.362;2022-09-27T15:21:48;166866.56;;;17.88;79.52
41688;BME280;27371;42.686;23.362;2022-09-27T15:24:42;166722.94;;;17.33;81.26
41688;BME280;27371;42.686;23.362;2022-09-27T15:27:19;166637.09;;;17.00;82.41
41688;BME280;27371;42.686;23.362;2022-09-27T15:29:48;166536.44;;;16.62;83.53
41688;BME280;27371;42.686;23.362;2022-09-27T15:32:16;166478.78;;;16.40;85.28
41688;BME280;27371;42.686;23.362;2022-09-27T15:34:44;166427.84;;;16.20;85.84
41688;BME280;27371;42.686;23.362;2022-09-27T15:37:36;166395.69;;;16.08;86.41
41688;BME280;27371;42.686;23.362;2022-09-27T15:43:20;166301.88;;;15.72;87.62
41688;BME280;27371;42.686;23.362;2022-09-27T15:45:50;166299.19;;;15.71;87.77